createdAt,value
2023-04-24T00:02:07.931Z,14.12
2023-04-24T00:04:34.915Z,14.14
2023-04-24T00:07:01.631Z,14.13
2023-04-24T00:09:28.288Z,14.08
2023-04-24T00:11:55.017Z,14.07
2023-04-24T00:14:21.784Z,14.07
2023-04-24T00:16:48.471Z,14.09
2023-04-24T00:19:15.171Z,14.05
2023-04-24T00:21:42.589Z,14.01
2023-04-24T00:24:12.137Z,13.99
2023-04-24T00:26:38.831Z,13.96
2023-04-24T00:29:08.591Z,14.01
2023-04-24T00:31:38.265Z,14.07
2023-04-24T00:34:05.812Z,14.04
2023-04-24T00:36:33.046Z,14.04
2023-04-24T00:38:59.679Z,14.05
2023-04-24T00:41:26.686Z,13.97
2023-04-24T00:43:53.660Z,13.94
2023-04-24T00:46:20.725Z,13.95
2023-04-24T00:48:47.530Z,13.97
2023-04-24T00:51:14.502Z,13.92
2023-04-24T00:53:41.253Z,13.90
2023-04-24T00:56:07.941Z,13.92
2023-04-24T00:58:34.674Z,13.93
2023-04-24T01:01:03.526Z,14.00
2023-04-24T01:03:33.038Z,14.10
2023-04-24T01:06:00.259Z,14.13
2023-04-24T01:08:29.193Z,14.01
2023-04-24T01:10:58.951Z,13.93
2023-04-24T01:13:25.671Z,13.90
2023-04-24T01:15:52.405Z,13.92
2023-04-24T01:18:19.489Z,14.00
2023-04-24T01:20:47.748Z,14.09
2023-04-24T01:23:14.951Z,14.18
2023-04-24T01:25:42.028Z,14.10
2023-04-24T01:28:09.211Z,13.93
2023-04-24T01:30:35.902Z,13.86
2023-04-24T01:33:03.622Z,13.83
2023-04-24T01:35:30.532Z,13.77
2023-04-24T01:37:57.261Z,13.83
2023-04-24T01:40:25.157Z,13.91
2023-04-24T01:42:52.582Z,13.94
2023-04-24T01:45:19.546Z,13.86
2023-04-24T01:47:47.646Z,13.88
2023-04-24T01:50:14.438Z,13.87
2023-04-24T01:52:41.176Z,13.90
2023-04-24T01:55:10.586Z,13.90
2023-04-24T01:57:38.300Z,13.95
2023-04-24T02:00:05.875Z,13.94
2023-04-24T02:02:45.678Z,13.93
2023-04-24T02:05:14.147Z,13.93
2023-04-24T02:07:43.922Z,13.95
2023-04-24T02:10:10.780Z,13.94
2023-04-24T02:12:42.277Z,13.91
2023-04-24T02:15:09.266Z,13.94
2023-04-24T02:17:37.751Z,13.98
2023-04-24T02:20:05.713Z,14.02
2023-04-24T02:22:32.384Z,14.07
2023-04-24T02:25:02.572Z,14.10
2023-04-24T02:27:29.238Z,14.11
2023-04-24T02:29:57.708Z,14.11
2023-04-24T02:32:24.708Z,14.06
2023-04-24T02:34:51.646Z,13.99
2023-04-24T02:37:18.392Z,14.04
2023-04-24T02:39:45.149Z,13.95
2023-04-24T02:42:12.102Z,13.81
2023-04-24T02:44:38.777Z,13.63
2023-04-24T02:47:05.587Z,13.43
2023-04-24T02:49:32.355Z,13.31
2023-04-24T02:51:59.020Z,13.26
2023-04-24T02:54:25.994Z,13.22
2023-04-24T02:56:52.793Z,13.27
2023-04-24T02:59:19.500Z,13.37
2023-04-24T03:01:49.194Z,13.51
2023-04-24T03:04:16.739Z,13.58
2023-04-24T03:06:43.927Z,13.56
2023-04-24T03:09:10.592Z,13.60
2023-04-24T03:11:37.409Z,13.56
2023-04-24T03:14:04.110Z,13.48
2023-04-24T03:16:30.854Z,13.49
2023-04-24T03:18:57.585Z,13.53
2023-04-24T03:21:27.566Z,13.56
2023-04-24T03:23:54.442Z,13.59
2023-04-24T03:26:21.176Z,13.64
2023-04-24T03:29:02.688Z,13.67
2023-04-24T03:31:29.441Z,13.66
2023-04-24T03:33:56.124Z,13.64
2023-04-24T03:36:27.187Z,13.64
2023-04-24T03:38:55.297Z,13.63
2023-04-24T03:41:44.645Z,13.54
2023-04-24T03:44:18.726Z,13.47
2023-04-24T03:46:45.692Z,13.45
2023-04-24T03:49:12.595Z,13.44
2023-04-24T03:51:43.066Z,13.42
2023-04-24T03:54:17.470Z,13.35
2023-04-24T03:56:48.180Z,13.18
2023-04-24T03:59:15.398Z,13.06
2023-04-24T04:01:46.443Z,12.96
2023-04-24T04:04:16.103Z,12.88
2023-04-24T04:06:45.127Z,12.76
2023-04-24T04:09:11.899Z,12.63
2023-04-24T04:11:38.608Z,12.52
2023-04-24T04:14:06.366Z,12.43
2023-04-24T04:16:34.953Z,12.37
2023-04-24T04:19:04.162Z,12.30
2023-04-24T04:21:32.317Z,12.23
2023-04-24T04:24:10.659Z,12.17
2023-04-24T04:26:41.721Z,12.16
2023-04-24T04:29:11.753Z,12.15
2023-04-24T04:31:42.188Z,12.12
2023-04-24T04:34:13.624Z,12.12
2023-04-24T04:36:42.317Z,12.11
2023-04-24T04:39:22.322Z,12.10
2023-04-24T04:41:57.154Z,12.15
2023-04-24T04:44:30.378Z,12.18
2023-04-24T04:46:59.508Z,12.23
2023-04-24T04:49:29.602Z,12.24
2023-04-24T04:51:56.550Z,12.26
2023-04-24T04:54:25.961Z,12.28
2023-04-24T04:56:52.983Z,12.32
2023-04-24T04:59:19.933Z,12.37
2023-04-24T05:01:48.349Z,12.43
2023-04-24T05:04:16.871Z,12.50
2023-04-24T05:06:44.467Z,12.60
2023-04-24T05:09:11.367Z,12.67
2023-04-24T05:11:47.668Z,12.80
2023-04-24T05:14:14.603Z,12.93
2023-04-24T05:16:43.151Z,12.98
2023-04-24T05:19:11.785Z,13.06
2023-04-24T05:21:41.676Z,13.20
2023-04-24T05:24:09.660Z,13.35
2023-04-24T05:26:48.836Z,13.40
2023-04-24T05:29:20.598Z,13.36
2023-04-24T05:31:47.980Z,13.29
2023-04-24T05:34:17.059Z,13.20
2023-04-24T05:36:45.632Z,13.13
2023-04-24T05:39:12.766Z,13.13
2023-04-24T05:41:39.428Z,13.16
2023-04-24T05:44:06.314Z,13.29
2023-04-24T05:46:33.308Z,13.43
2023-04-24T05:49:00.052Z,13.63
2023-04-24T05:51:26.994Z,13.66
2023-04-24T05:53:53.955Z,13.65
2023-04-24T05:56:21.607Z,13.54
2023-04-24T05:58:49.817Z,13.51
2023-04-24T06:01:16.772Z,13.66
2023-04-24T06:03:47.202Z,13.65
2023-04-24T06:06:14.468Z,13.54
2023-04-24T06:08:43.548Z,13.45
2023-04-24T06:11:10.867Z,13.49
2023-04-24T06:13:38.734Z,13.65
2023-04-24T06:16:34.843Z,13.83
2023-04-24T06:19:08.849Z,13.87
2023-04-24T06:21:36.128Z,13.92
2023-04-24T06:24:03.311Z,14.05
2023-04-24T06:26:30.295Z,14.16
2023-04-24T06:28:57.313Z,14.24
2023-04-24T06:31:24.046Z,14.19
2023-04-24T06:33:50.951Z,14.09
2023-04-24T06:36:18.179Z,13.97
2023-04-24T06:38:45.039Z,13.82
2023-04-24T06:41:11.864Z,13.77
2023-04-24T06:43:38.586Z,13.73
2023-04-24T06:46:05.880Z,13.67
2023-04-24T06:48:32.706Z,13.54
2023-04-24T06:50:59.367Z,13.54
2023-04-24T06:53:26.289Z,13.66
2023-04-24T06:55:53.228Z,13.98
2023-04-24T06:58:19.866Z,14.26
2023-04-24T07:00:46.795Z,14.33
2023-04-24T07:03:13.590Z,14.48
2023-04-24T07:05:41.053Z,14.80
2023-04-24T07:08:07.854Z,15.35
2023-04-24T07:10:36.725Z,15.53
2023-04-24T07:13:03.723Z,15.46
2023-04-24T07:15:30.803Z,16.59
2023-04-24T07:17:57.483Z,17.11
2023-04-24T07:20:24.266Z,16.54
2023-04-24T07:22:50.925Z,15.91
2023-04-24T07:25:17.611Z,15.41
2023-04-24T07:27:44.364Z,15.09
2023-04-24T07:30:11.791Z,15.01
2023-04-24T07:32:38.501Z,15.07
2023-04-24T07:35:05.698Z,15.17
2023-04-24T07:37:32.834Z,15.35
2023-04-24T07:39:59.646Z,15.15
2023-04-24T07:42:26.357Z,14.79
2023-04-24T07:44:53.065Z,14.62
2023-04-24T07:47:19.876Z,14.41
2023-04-24T07:49:46.828Z,14.35
2023-04-24T07:52:13.627Z,14.59
2023-04-24T07:54:40.428Z,14.68
2023-04-24T07:57:09.233Z,14.69
2023-04-24T07:59:36.108Z,14.89
2023-04-24T08:02:02.961Z,15.23
2023-04-24T08:04:29.776Z,15.69
2023-04-24T08:06:56.673Z,15.90
2023-04-24T08:09:23.634Z,15.83
2023-04-24T08:11:50.960Z,15.79
2023-04-24T08:14:17.635Z,15.80
2023-04-24T08:16:44.596Z,16.08
2023-04-24T08:19:11.280Z,16.50
2023-04-24T08:21:37.971Z,16.81
2023-04-24T08:24:08.046Z,16.86
2023-04-24T08:26:34.776Z,16.55
2023-04-24T08:29:01.843Z,16.27
2023-04-24T08:31:28.735Z,16.20
2023-04-24T08:33:55.588Z,16.09
2023-04-24T08:36:45.785Z,16.30
2023-04-24T08:39:14.099Z,18.95
2023-04-24T08:41:44.043Z,19.63
2023-04-24T08:44:11.718Z,21.13
2023-04-24T08:46:38.906Z,22.65
2023-04-24T08:49:06.087Z,21.50
2023-04-24T08:51:33.077Z,20.39
2023-04-24T08:53:59.893Z,19.12
2023-04-24T08:56:28.069Z,18.35
2023-04-24T08:58:55.761Z,17.82
2023-04-24T09:01:26.279Z,17.36
2023-04-24T09:03:55.403Z,17.11
2023-04-24T09:06:23.012Z,16.83
2023-04-24T09:08:55.073Z,16.55
2023-04-24T09:11:22.359Z,16.30
2023-04-24T09:13:49.611Z,16.09
2023-04-24T09:16:17.070Z,16.17
2023-04-24T09:18:43.926Z,16.48
2023-04-24T09:21:11.220Z,16.74
2023-04-24T09:23:38.045Z,16.82
2023-04-24T09:26:08.748Z,17.06
2023-04-24T09:28:40.367Z,17.24
2023-04-24T09:31:16.807Z,17.70
2023-04-24T09:33:59.075Z,18.31
2023-04-24T09:36:35.052Z,18.94
2023-04-24T09:39:03.288Z,18.88
2023-04-24T09:41:30.414Z,18.96
2023-04-24T09:43:57.971Z,18.59
2023-04-24T09:46:32.862Z,17.80
2023-04-24T09:49:13.924Z,17.21
2023-04-24T09:51:41.636Z,16.83
2023-04-24T09:54:19.594Z,16.62
2023-04-24T09:56:47.348Z,16.61
2023-04-24T09:59:15.353Z,16.96
2023-04-24T10:01:49.814Z,17.02
2023-04-24T10:04:19.330Z,18.79
2023-04-24T10:06:47.017Z,20.33
2023-04-24T10:09:14.855Z,19.97
2023-04-24T10:11:47.022Z,19.63
2023-04-24T10:14:15.866Z,18.66
2023-04-24T10:16:43.790Z,18.02
2023-04-24T10:19:11.944Z,18.10
2023-04-24T10:21:43.329Z,18.92
2023-04-24T10:24:11.086Z,24.04
2023-04-24T10:26:38.373Z,30.15
2023-04-24T10:29:10.828Z,34.58
2023-04-24T10:31:38.619Z,36.44
2023-04-24T10:34:10.065Z,36.83
2023-04-24T10:36:42.057Z,36.69
2023-04-24T10:39:12.644Z,35.15
2023-04-24T10:41:39.472Z,32.33
2023-04-24T10:44:11.291Z,29.50
2023-04-24T10:46:40.109Z,26.78
2023-04-24T10:49:09.625Z,24.56
2023-04-24T10:51:51.122Z,23.02
2023-04-24T10:54:37.365Z,21.60
2023-04-24T10:57:19.558Z,21.09
2023-04-24T10:59:47.845Z,20.81
2023-04-24T11:02:18.831Z,20.29
2023-04-24T11:04:49.214Z,19.70
2023-04-24T11:07:15.972Z,19.25
2023-04-24T11:09:44.488Z,18.95
2023-04-24T11:12:13.857Z,18.58
2023-04-24T11:14:59.728Z,18.38
2023-04-24T11:17:34.899Z,18.70
2023-04-24T11:20:19.427Z,18.96
2023-04-24T11:22:56.601Z,19.10
2023-04-24T11:25:23.803Z,19.24
2023-04-24T11:27:51.370Z,19.26
2023-04-24T11:30:20.347Z,19.91
2023-04-24T11:32:52.596Z,19.62
2023-04-24T11:35:29.033Z,19.33
2023-04-24T11:40:26.959Z,19.81
2023-04-24T11:42:57.548Z,19.71
2023-04-24T11:45:30.965Z,19.16
2023-04-24T11:47:58.387Z,18.49
2023-04-24T11:50:27.743Z,17.95
2023-04-24T11:52:55.103Z,17.48
2023-04-24T11:55:21.718Z,17.17
2023-04-24T11:57:50.597Z,16.98
2023-04-24T12:00:22.653Z,16.80
2023-04-24T12:02:51.265Z,16.74
2023-04-24T12:05:36.487Z,17.13
2023-04-24T12:08:03.579Z,18.02
2023-04-24T12:10:32.568Z,18.36
2023-04-24T12:13:01.025Z,18.66
2023-04-24T12:15:28.413Z,18.90
2023-04-24T12:17:57.001Z,19.51
2023-04-24T12:20:32.399Z,20.30
2023-04-24T12:23:01.145Z,20.22
2023-04-24T12:25:33.879Z,19.64
2023-04-24T12:28:07.163Z,19.18
2023-04-24T12:30:45.898Z,18.85
2023-04-24T12:33:13.354Z,18.58
2023-04-24T12:35:42.360Z,18.41
2023-04-24T12:38:15.016Z,18.52
2023-04-24T12:40:43.350Z,18.63
2023-04-24T12:43:20.688Z,18.40
2023-04-24T12:45:48.986Z,18.24
2023-04-24T12:48:15.848Z,18.07
2023-04-24T12:50:46.118Z,18.35
2023-04-24T12:53:13.546Z,18.73
2023-04-24T12:55:41.097Z,18.83
2023-04-24T12:58:07.906Z,18.84
2023-04-24T13:00:34.982Z,18.89
2023-04-24T13:03:03.005Z,18.86
2023-04-24T13:05:30.204Z,19.00
2023-04-24T13:07:58.409Z,19.32
2023-04-24T13:10:25.190Z,19.11
2023-04-24T13:12:51.999Z,18.73
2023-04-24T13:15:18.835Z,18.29
2023-04-24T13:17:45.679Z,18.13
2023-04-24T13:20:12.938Z,18.33
2023-04-24T13:22:39.646Z,18.77
2023-04-24T13:25:10.184Z,19.17
2023-04-24T13:27:39.451Z,19.82
2023-04-24T13:30:07.862Z,20.22
2023-04-24T13:32:36.542Z,20.22
2023-04-24T13:35:03.652Z,20.17
2023-04-24T13:37:30.469Z,19.86
2023-04-24T13:39:57.446Z,19.62
2023-04-24T13:42:24.453Z,19.51
2023-04-24T13:44:52.298Z,19.19
2023-04-24T13:47:19.064Z,18.94
2023-04-24T13:49:47.999Z,18.60
2023-04-24T13:52:15.157Z,18.31
2023-04-24T13:54:41.864Z,18.16
2023-04-24T13:57:08.968Z,18.05
2023-04-24T13:59:36.675Z,17.86
2023-04-24T14:02:03.544Z,17.87
2023-04-24T14:04:30.602Z,17.83
2023-04-24T14:06:57.464Z,17.72
2023-04-24T14:09:27.633Z,17.53
2023-04-24T14:11:54.597Z,17.41
2023-04-24T14:14:21.459Z,17.34
2023-04-24T14:16:49.510Z,17.11
2023-04-24T14:19:16.125Z,16.95
2023-04-24T14:21:42.900Z,16.96
2023-04-24T14:24:10.225Z,16.98
2023-04-24T14:26:37.076Z,17.06
2023-04-24T14:29:14.073Z,17.37
2023-04-24T14:31:41.584Z,17.72
2023-04-24T14:34:08.240Z,17.72
2023-04-24T14:36:35.099Z,17.71
2023-04-24T14:39:06.846Z,17.74
2023-04-24T14:41:36.649Z,17.61
2023-04-24T14:44:04.860Z,17.70
2023-04-24T14:46:31.804Z,17.96
2023-04-24T14:48:58.933Z,18.19
2023-04-24T14:51:26.512Z,18.40
2023-04-24T14:53:53.361Z,18.20
2023-04-24T14:56:21.278Z,17.91
2023-04-24T14:58:48.152Z,17.63
2023-04-24T15:01:15.131Z,17.39
2023-04-24T15:03:43.143Z,17.25
2023-04-24T15:06:10.001Z,17.03
2023-04-24T15:08:36.873Z,16.83
2023-04-24T15:11:03.636Z,16.63
2023-04-24T15:13:30.638Z,16.47
2023-04-24T15:15:57.376Z,16.31
2023-04-24T15:18:24.543Z,16.36
2023-04-24T15:20:51.640Z,16.53
2023-04-24T15:23:18.420Z,16.74
2023-04-24T15:25:45.364Z,17.09
2023-04-24T15:28:12.905Z,17.15
2023-04-24T15:30:39.599Z,17.38
2023-04-24T15:33:06.625Z,17.94
2023-04-24T15:35:37.701Z,18.51
2023-04-24T15:38:05.244Z,18.63
2023-04-24T15:40:32.113Z,18.11
2023-04-24T15:42:58.896Z,17.51
2023-04-24T15:45:26.223Z,17.11
2023-04-24T15:47:54.928Z,16.94
2023-04-24T15:50:22.842Z,16.78
2023-04-24T15:52:49.898Z,16.70
2023-04-24T15:55:16.704Z,16.57
2023-04-24T15:57:43.558Z,16.42
2023-04-24T16:00:12.400Z,16.37
2023-04-24T16:02:39.837Z,16.39
2023-04-24T16:05:07.802Z,16.41
2023-04-24T16:07:36.375Z,16.36
2023-04-24T16:10:03.561Z,16.32
2023-04-24T16:12:30.417Z,16.30
2023-04-24T16:14:57.172Z,16.35
2023-04-24T16:17:23.823Z,16.60
2023-04-24T16:19:50.522Z,16.68
2023-04-24T16:22:17.346Z,16.57
2023-04-24T16:24:44.648Z,16.52
2023-04-24T16:27:14.482Z,16.47
2023-04-24T16:29:41.251Z,16.38
2023-04-24T16:32:07.951Z,16.29
2023-04-24T16:34:34.630Z,16.21
2023-04-24T16:37:01.511Z,16.18
2023-04-24T16:39:28.364Z,16.11
2023-04-24T16:41:59.004Z,16.08
2023-04-24T16:44:26.693Z,16.24
2023-04-24T16:46:53.409Z,16.46
2023-04-24T16:49:20.359Z,16.53
2023-04-24T16:51:47.374Z,16.38
2023-04-24T16:54:14.133Z,16.16
2023-04-24T16:56:40.749Z,16.00
2023-04-24T16:59:08.264Z,15.92
2023-04-24T17:01:35.304Z,15.92
2023-04-24T17:04:02.090Z,15.92
2023-04-24T17:06:28.830Z,15.86
2023-04-24T17:08:55.803Z,15.83
2023-04-24T17:11:23.092Z,15.74
2023-04-24T17:13:49.918Z,15.63
2023-04-24T17:16:16.762Z,15.52
2023-04-24T17:18:45.297Z,15.44
2023-04-24T17:21:12.397Z,15.38
2023-04-24T17:23:39.214Z,15.36
2023-04-24T17:26:06.140Z,15.34
2023-04-24T17:28:33.936Z,15.32
2023-04-24T17:31:01.140Z,15.30
2023-04-24T17:33:29.246Z,15.30
2023-04-24T17:35:57.291Z,15.27
2023-04-24T17:38:24.615Z,15.29
2023-04-24T17:40:53.077Z,15.26
2023-04-24T17:43:21.009Z,15.26
2023-04-24T17:45:52.232Z,15.23
2023-04-24T17:48:19.881Z,15.24
2023-04-24T17:50:46.836Z,15.26
2023-04-24T17:53:13.760Z,15.25
2023-04-24T17:55:43.620Z,15.22
2023-04-24T17:58:11.162Z,15.19
2023-04-24T18:00:38.451Z,15.22
2023-04-24T18:03:06.901Z,15.19
2023-04-24T18:05:36.193Z,15.16
2023-04-24T18:08:03.645Z,15.14
2023-04-24T18:10:31.947Z,15.07
2023-04-24T18:12:59.649Z,15.03
2023-04-24T18:15:27.256Z,15.04
2023-04-24T18:17:56.696Z,15.06
2023-04-24T18:20:23.510Z,15.01
2023-04-24T18:22:50.310Z,14.91
2023-04-24T18:25:21.152Z,14.89
2023-04-24T18:27:47.905Z,14.87
2023-04-24T18:30:14.998Z,14.90
2023-04-24T18:32:42.277Z,14.90
2023-04-24T18:35:09.465Z,14.92
2023-04-24T18:37:36.198Z,14.92
2023-04-24T18:40:03.601Z,14.90
2023-04-24T18:42:30.564Z,14.83
2023-04-24T18:45:01.898Z,14.76
2023-04-24T18:47:29.363Z,14.68
2023-04-24T18:49:57.261Z,14.63
2023-04-24T18:52:24.997Z,14.60
2023-04-24T18:54:52.138Z,14.58
2023-04-24T18:57:18.913Z,14.57
2023-04-24T18:59:45.701Z,14.57
2023-04-24T19:02:12.724Z,14.60
2023-04-24T19:04:39.647Z,14.64
2023-04-24T19:07:07.011Z,14.69
2023-04-24T19:09:34.082Z,14.70
2023-04-24T19:12:01.897Z,14.72
2023-04-24T19:14:29.325Z,14.73
2023-04-24T19:16:56.088Z,14.71
2023-04-24T19:19:23.799Z,14.67
2023-04-24T19:21:50.739Z,14.61
2023-04-24T19:24:19.240Z,14.59
2023-04-24T19:26:46.274Z,14.59
2023-04-24T19:29:13.116Z,14.55
2023-04-24T19:31:39.861Z,14.51
2023-04-24T19:34:06.888Z,14.48
2023-04-24T19:36:34.018Z,14.45
2023-04-24T19:39:01.303Z,14.45
2023-04-24T19:41:28.139Z,14.45
2023-04-24T19:43:55.253Z,14.40
2023-04-24T19:46:22.830Z,14.37
2023-04-24T19:48:49.892Z,14.25
2023-04-24T19:51:16.794Z,14.16
2023-04-24T19:53:43.735Z,14.04
2023-04-24T19:56:10.546Z,13.98
2023-04-24T19:58:40.554Z,13.97
2023-04-24T20:01:07.574Z,13.97
2023-04-24T20:03:34.729Z,13.95
2023-04-24T20:06:02.415Z,13.95
2023-04-24T20:08:29.072Z,13.93
2023-04-24T20:10:57.878Z,13.91
2023-04-24T20:13:27.628Z,13.87
2023-04-24T20:15:54.699Z,13.84
2023-04-24T20:18:21.516Z,13.80
2023-04-24T20:20:48.271Z,13.77
2023-04-24T20:23:14.980Z,13.74
2023-04-24T20:25:41.656Z,13.73
2023-04-24T20:28:08.371Z,13.71
2023-04-24T20:30:35.129Z,13.69
2023-04-24T20:33:02.019Z,13.68
2023-04-24T20:35:28.770Z,13.65
2023-04-24T20:37:55.464Z,13.64
2023-04-24T20:40:22.294Z,13.62
2023-04-24T20:42:49.792Z,13.56
2023-04-24T20:45:17.946Z,13.50
2023-04-24T20:47:44.885Z,13.49
2023-04-24T20:50:12.034Z,13.50
2023-04-24T20:52:39.950Z,13.52
2023-04-24T20:55:09.776Z,13.53
2023-04-24T20:57:37.133Z,13.51
2023-04-24T21:00:07.925Z,13.51
2023-04-24T21:02:34.979Z,13.51
2023-04-24T21:05:01.810Z,13.47
2023-04-24T21:07:28.555Z,13.47
2023-04-24T21:09:55.249Z,13.48
2023-04-24T21:12:22.029Z,13.49
2023-04-24T21:14:50.942Z,13.50
2023-04-24T21:17:18.286Z,13.51
2023-04-24T21:19:45.005Z,13.51
2023-04-24T21:22:11.608Z,13.53
2023-04-24T21:24:38.229Z,13.51
2023-04-24T21:27:04.982Z,13.49
2023-04-24T21:29:33.088Z,13.46
2023-04-24T21:31:59.880Z,13.46
2023-04-24T21:34:26.665Z,13.51
2023-04-24T21:36:53.319Z,13.54
2023-04-24T21:39:20.074Z,13.59
2023-04-24T21:41:47.637Z,13.59
2023-04-24T21:44:14.883Z,13.58
2023-04-24T21:46:42.634Z,13.55
2023-04-24T21:49:09.611Z,13.50
2023-04-24T21:51:36.305Z,13.48
2023-04-24T21:54:02.990Z,13.46
2023-04-24T21:56:29.780Z,13.41
2023-04-24T21:58:57.101Z,13.36
2023-04-24T22:01:23.943Z,13.32
2023-04-24T22:03:50.996Z,13.27
2023-04-24T22:06:18.025Z,13.22
2023-04-24T22:08:47.614Z,13.23
2023-04-24T22:11:25.653Z,13.20
2023-04-24T22:13:54.173Z,13.17
2023-04-24T22:16:23.869Z,13.18
2023-04-24T22:18:53.703Z,13.12
2023-04-24T22:21:22.807Z,13.11
2023-04-24T22:23:50.095Z,13.08
2023-04-24T22:26:17.171Z,13.09
2023-04-24T22:28:43.865Z,13.11
2023-04-24T22:31:10.673Z,13.13
2023-04-24T22:33:37.661Z,13.13
2023-04-24T22:36:04.455Z,13.09
2023-04-24T22:38:31.278Z,13.04
2023-04-24T22:40:58.353Z,13.02
2023-04-24T22:43:27.249Z,12.97
2023-04-24T22:45:54.122Z,12.96
2023-04-24T22:48:20.948Z,12.96
2023-04-24T22:50:47.595Z,12.97
2023-04-24T22:53:15.659Z,12.95
2023-04-24T22:55:42.542Z,12.87
2023-04-24T22:58:09.492Z,12.83
2023-04-24T23:00:36.423Z,12.87
2023-04-24T23:03:03.523Z,12.91
2023-04-24T23:05:31.157Z,12.86
2023-04-24T23:07:57.808Z,12.75
2023-04-24T23:10:24.554Z,12.77
2023-04-24T23:12:51.527Z,12.78
2023-04-24T23:15:18.464Z,12.74
2023-04-24T23:17:45.497Z,12.67
2023-04-24T23:20:13.847Z,12.63
2023-04-24T23:22:44.342Z,12.61
2023-04-24T23:25:11.213Z,12.61
2023-04-24T23:27:38.173Z,12.60
2023-04-24T23:30:06.949Z,12.58
2023-04-24T23:32:35.078Z,12.58
2023-04-24T23:35:01.805Z,12.51
2023-04-24T23:37:28.531Z,12.49
2023-04-24T23:39:56.408Z,12.45
2023-04-24T23:42:23.141Z,12.45
2023-04-24T23:44:49.888Z,12.44
2023-04-24T23:47:16.542Z,12.45
2023-04-24T23:49:43.279Z,12.45
2023-04-24T23:52:10.458Z,12.41
2023-04-24T23:54:37.245Z,12.24
2023-04-24T23:57:04.561Z,12.12
2023-04-24T23:59:31.330Z,12.05
